createdAt,value
2019-05-23T00:00:58.404Z,19.97
2019-05-23T00:03:42.612Z,18.30
2019-05-23T00:06:19.844Z,20.03
2019-05-23T00:08:50.178Z,19.63
2019-05-23T00:11:29.926Z,19.17
2019-05-23T00:14:02.026Z,20.17
2019-05-23T00:16:32.408Z,17.80
2019-05-23T00:19:02.651Z,16.97
2019-05-23T00:21:33.488Z,17.73
2019-05-23T00:24:04.516Z,18.33
2019-05-23T00:26:36.520Z,19.33
2019-05-23T00:29:10.445Z,18.67
2019-05-23T00:31:41.623Z,17.60
2019-05-23T00:34:12.822Z,17.00
2019-05-23T00:36:43.356Z,17.90
2019-05-23T00:39:14.626Z,17.37
2019-05-23T00:41:45.602Z,17.13
2019-05-23T00:44:16.293Z,15.87
2019-05-23T00:46:46.988Z,16.07
2019-05-23T00:49:18.958Z,16.50
2019-05-23T00:51:49.143Z,19.47
2019-05-23T00:54:19.881Z,17.20
2019-05-23T00:56:50.734Z,16.60
2019-05-23T00:59:27.010Z,17.40
2019-05-23T01:01:52.931Z,18.00
2019-05-23T01:04:22.970Z,18.80
2019-05-23T01:06:54.424Z,18.00
2019-05-23T01:09:26.546Z,18.23
2019-05-23T01:11:57.196Z,18.57
2019-05-23T01:14:27.775Z,18.87
2019-05-23T01:16:58.407Z,19.53
2019-05-23T01:19:28.633Z,18.50
2019-05-23T01:22:02.421Z,18.07
2019-05-23T01:24:40.133Z,18.30
2019-05-23T01:27:10.676Z,20.47
2019-05-23T01:29:42.731Z,17.77
2019-05-23T01:32:15.064Z,17.93
2019-05-23T01:34:45.634Z,17.47
2019-05-23T01:37:16.364Z,16.47
2019-05-23T01:39:45.789Z,17.13
2019-05-23T01:42:17.037Z,19.07
2019-05-23T01:44:47.854Z,18.33
2019-05-23T01:47:18.664Z,17.33
2019-05-23T01:49:49.976Z,19.93
2019-05-23T01:52:20.130Z,18.97
2019-05-23T01:54:49.293Z,20.53
2019-05-23T01:57:20.316Z,19.13
2019-05-23T02:00:06.157Z,18.03
2019-05-23T02:02:23.390Z,17.23
2019-05-23T02:04:53.677Z,17.33
2019-05-23T02:07:24.073Z,16.90
2019-05-23T02:09:53.773Z,17.47
2019-05-23T02:12:24.174Z,16.90
2019-05-23T02:14:55.289Z,18.00
2019-05-23T02:17:25.798Z,18.67
2019-05-23T02:19:55.158Z,17.67
2019-05-23T02:22:26.349Z,18.90
2019-05-23T02:24:57.030Z,17.17
2019-05-23T02:27:27.218Z,18.43
2019-05-23T02:29:57.703Z,18.27
2019-05-23T02:32:29.305Z,18.40
2019-05-23T02:35:00.840Z,18.23
2019-05-23T02:37:38.671Z,16.83
2019-05-23T02:40:14.238Z,17.80
2019-05-23T02:42:46.015Z,16.60
2019-05-23T02:45:20.220Z,15.97
2019-05-23T02:47:49.797Z,16.83
2019-05-23T02:50:31.780Z,16.13
2019-05-23T02:53:03.598Z,17.20
2019-05-23T02:55:36.433Z,17.50
2019-05-23T02:58:21.342Z,16.43
2019-05-23T03:01:00.589Z,16.43
2019-05-23T03:03:32.633Z,15.70
2019-05-23T03:06:02.840Z,15.57
2019-05-23T03:08:32.761Z,15.00
2019-05-23T03:11:20.161Z,15.77
2019-05-23T03:13:52.481Z,13.67
2019-05-23T03:16:24.913Z,15.33
2019-05-23T03:18:58.422Z,15.67
2019-05-23T03:21:29.061Z,18.80
2019-05-23T03:24:00.357Z,19.43
2019-05-23T03:26:33.556Z,16.70
2019-05-23T03:29:04.227Z,17.13
2019-05-23T03:31:39.454Z,17.60
2019-05-23T03:34:10.860Z,17.07
2019-05-23T03:36:41.234Z,16.97
2019-05-23T03:39:12.296Z,17.30
2019-05-23T03:41:41.626Z,16.27
2019-05-23T03:44:12.192Z,16.30
2019-05-23T03:46:43.421Z,15.50
2019-05-23T03:49:15.291Z,16.43
2019-05-23T03:51:45.317Z,15.67
2019-05-23T03:54:15.570Z,15.20
2019-05-23T03:56:47.209Z,14.97
2019-05-23T03:59:19.178Z,15.47
2019-05-23T04:01:50.052Z,17.03
2019-05-23T04:04:20.935Z,16.37
2019-05-23T04:06:51.585Z,18.10
2019-05-23T04:09:22.728Z,17.70
2019-05-23T04:11:52.573Z,20.00
2019-05-23T04:14:23.187Z,18.17
2019-05-23T04:16:52.579Z,17.47
2019-05-23T04:19:21.752Z,17.73
2019-05-23T04:21:51.906Z,16.77
2019-05-23T04:24:22.225Z,17.23
2019-05-23T04:26:52.036Z,15.90
2019-05-23T04:29:21.892Z,16.13
2019-05-23T04:32:07.117Z,17.33
2019-05-23T04:34:23.742Z,18.33
2019-05-23T04:36:53.491Z,17.10
2019-05-23T04:39:23.878Z,16.83
2019-05-23T04:41:53.562Z,17.80
2019-05-23T04:44:23.547Z,17.17
2019-05-23T04:46:54.620Z,17.67
2019-05-23T04:49:25.011Z,15.87
2019-05-23T04:51:55.339Z,16.33
2019-05-23T04:54:25.710Z,15.90
2019-05-23T04:56:55.464Z,17.10
2019-05-23T04:59:25.663Z,16.67
2019-05-23T05:02:00.217Z,17.40
2019-05-23T05:04:30.558Z,16.03
2019-05-23T05:07:00.245Z,17.23
2019-05-23T05:09:32.289Z,18.67
2019-05-23T05:12:02.443Z,20.70
2019-05-23T05:14:33.557Z,19.53
2019-05-23T05:17:03.613Z,21.63
2019-05-23T05:19:34.352Z,22.93
2019-05-23T05:22:03.566Z,24.10
2019-05-23T05:24:32.790Z,24.40
2019-05-23T05:27:02.264Z,24.00
2019-05-23T05:29:32.300Z,29.23
2019-05-23T05:32:03.983Z,28.67
2019-05-23T05:34:33.959Z,29.40
2019-05-23T05:37:04.709Z,30.43
2019-05-23T18:38:37.242Z,3.10
2019-05-23T18:41:09.117Z,3.10
